createdAt,value
2024-05-09T00:00:36.351Z,3.47
2024-05-09T00:03:10.801Z,3.20
2024-05-09T00:05:39.011Z,3.72
2024-05-09T00:08:06.312Z,3.33
2024-05-09T00:10:37.003Z,8.27
2024-05-09T00:13:06.300Z,4.50
2024-05-09T00:15:34.166Z,3.17
2024-05-09T00:18:01.800Z,5.18
2024-05-09T00:20:36.975Z,4.53
2024-05-09T00:23:16.116Z,4.05
2024-05-09T00:25:43.265Z,5.40
2024-05-09T00:28:10.420Z,5.00
2024-05-09T00:30:37.630Z,6.75
2024-05-09T00:33:09.094Z,3.28
2024-05-09T00:35:37.362Z,3.90
2024-05-09T00:38:04.603Z,3.90
2024-05-09T00:40:40.772Z,8.23
2024-05-09T00:43:10.386Z,5.40
2024-05-09T00:45:37.341Z,4.17
2024-05-09T00:48:07.500Z,4.47
2024-05-09T00:50:37.459Z,5.20
2024-05-09T00:53:05.374Z,6.63
2024-05-09T00:55:32.113Z,5.93
2024-05-09T00:57:58.820Z,4.20
2024-05-09T01:00:31.812Z,5.00
2024-05-09T01:03:05.739Z,7.07
2024-05-09T01:05:32.932Z,3.83
2024-05-09T01:07:59.802Z,4.87
2024-05-09T01:10:33.604Z,4.50
2024-05-09T01:13:02.764Z,3.83
2024-05-09T01:15:29.587Z,7.10
2024-05-09T01:17:56.962Z,8.93
2024-05-09T01:20:35.904Z,5.47
2024-05-09T01:23:07.350Z,8.93
2024-05-09T01:25:34.366Z,3.53
2024-05-09T01:28:01.298Z,3.55
2024-05-09T01:30:34.310Z,4.90
2024-05-09T01:33:03.790Z,5.45
2024-05-09T01:35:30.872Z,5.97
2024-05-09T01:37:57.644Z,4.30
2024-05-09T01:40:33.541Z,6.45
2024-05-09T01:43:04.831Z,4.97
2024-05-09T01:45:31.723Z,11.38
2024-05-09T01:47:58.906Z,9.00
2024-05-09T01:50:37.028Z,5.53
2024-05-09T01:53:07.576Z,7.20
2024-05-09T01:55:34.398Z,4.30
2024-05-09T01:58:01.203Z,8.67
2024-05-09T02:00:38.026Z,6.17
2024-05-09T02:03:14.401Z,6.20
2024-05-09T02:05:43.941Z,6.03
2024-05-09T02:08:17.510Z,7.17
2024-05-09T02:10:45.059Z,5.57
2024-05-09T02:13:12.185Z,6.93
2024-05-09T02:15:38.959Z,8.13
2024-05-09T02:18:06.056Z,5.33
2024-05-09T02:20:36.435Z,4.27
2024-05-09T02:23:05.272Z,4.37
2024-05-09T02:25:32.506Z,5.10
2024-05-09T02:27:59.621Z,6.00
2024-05-09T02:30:36.084Z,5.23
2024-05-09T02:33:07.680Z,5.93
2024-05-09T02:35:34.969Z,6.33
2024-05-09T02:38:01.917Z,8.00
2024-05-09T02:40:36.112Z,7.77
2024-05-09T02:43:05.759Z,7.10
2024-05-09T02:45:33.029Z,5.87
2024-05-09T02:48:00.210Z,8.50
2024-05-09T02:50:34.446Z,6.40
2024-05-09T02:53:05.944Z,4.53
2024-05-09T02:55:33.067Z,8.33
2024-05-09T02:58:00.017Z,7.03
2024-05-09T03:00:35.052Z,8.83
2024-05-09T03:03:07.400Z,5.03
2024-05-09T03:05:34.638Z,6.53
2024-05-09T03:08:01.656Z,7.63
2024-05-09T03:10:29.267Z,8.33
2024-05-09T03:13:05.495Z,4.93
2024-05-09T03:15:33.283Z,10.80
2024-05-09T03:18:01.475Z,6.13
2024-05-09T03:20:33.883Z,6.53
2024-05-09T03:23:02.652Z,5.30
2024-05-09T03:25:29.685Z,6.37
2024-05-09T03:27:56.824Z,7.73
2024-05-09T03:30:36.017Z,5.13
2024-05-09T03:33:12.478Z,8.33
2024-05-09T03:35:40.340Z,6.93
2024-05-09T03:38:07.140Z,6.57
2024-05-09T03:40:33.898Z,9.00
2024-05-09T03:43:00.676Z,6.10
2024-05-09T03:45:27.383Z,4.77
2024-05-09T03:47:54.408Z,7.30
2024-05-09T03:50:29.517Z,8.17
2024-05-09T03:53:00.634Z,6.30
2024-05-09T03:55:27.625Z,8.23
2024-05-09T03:57:54.367Z,8.27
2024-05-09T04:00:30.509Z,8.70
2024-05-09T04:03:02.975Z,7.53
2024-05-09T04:05:31.372Z,10.50
2024-05-09T04:07:58.410Z,10.43
2024-05-09T04:10:32.539Z,6.30
2024-05-09T04:13:00.896Z,6.73
2024-05-09T04:15:27.690Z,5.73
2024-05-09T04:17:54.659Z,9.10
2024-05-09T04:20:32.629Z,9.33
2024-05-09T04:23:05.231Z,8.13
2024-05-09T04:25:32.229Z,6.30
2024-05-09T04:27:59.015Z,6.20
2024-05-09T04:30:34.688Z,7.13
2024-05-09T04:33:07.106Z,7.37
2024-05-09T04:35:35.312Z,11.68
2024-05-09T04:38:02.237Z,11.07
2024-05-09T04:40:33.948Z,7.68
2024-05-09T04:43:03.302Z,12.32
2024-05-09T04:45:30.256Z,10.85
2024-05-09T04:47:57.133Z,12.07
2024-05-09T04:50:33.461Z,14.10
2024-05-09T04:53:04.355Z,8.95
2024-05-09T04:55:31.823Z,12.00
2024-05-09T04:57:58.531Z,11.55
2024-05-09T05:00:34.412Z,12.95
2024-05-09T05:03:07.407Z,8.32
2024-05-09T05:05:37.318Z,7.38
2024-05-09T05:08:04.205Z,7.13
2024-05-09T05:10:35.890Z,11.50
2024-05-09T05:13:18.023Z,13.27
2024-05-09T05:15:53.724Z,9.90
2024-05-09T05:18:21.130Z,14.02
2024-05-09T05:20:48.178Z,13.07
2024-05-09T05:23:16.097Z,12.82
2024-05-09T05:25:43.083Z,8.55
2024-05-09T05:28:10.116Z,10.40
2024-05-09T05:30:38.596Z,10.57
2024-05-09T05:33:05.798Z,11.38
2024-05-09T05:35:32.997Z,13.43
2024-05-09T05:37:59.967Z,14.77
2024-05-09T05:40:33.363Z,10.25
2024-05-09T05:43:08.753Z,11.07
2024-05-09T05:45:35.828Z,10.98
2024-05-09T05:48:06.782Z,14.13
2024-05-09T05:50:36.825Z,11.57
2024-05-09T05:53:05.708Z,8.18
2024-05-09T05:55:32.620Z,12.57
2024-05-09T05:57:59.758Z,10.65
2024-05-09T06:00:34.351Z,12.18
2024-05-09T06:03:05.277Z,11.40
2024-05-09T06:05:32.747Z,12.20
2024-05-09T06:07:59.817Z,8.15
2024-05-09T06:10:36.922Z,10.35
2024-05-09T06:13:06.512Z,8.98
2024-05-09T06:15:33.276Z,11.68
2024-05-09T06:18:00.258Z,8.23
2024-05-09T06:20:35.040Z,6.43
2024-05-09T06:23:04.812Z,7.35
2024-05-09T06:25:31.775Z,7.40
2024-05-09T06:27:59.299Z,5.53
2024-05-09T06:30:34.795Z,5.38
2024-05-09T06:33:06.448Z,5.40
2024-05-09T06:35:34.136Z,7.03
2024-05-09T06:38:01.454Z,8.25
2024-05-09T06:40:36.714Z,8.82
2024-05-09T06:43:06.174Z,8.27
2024-05-09T06:45:32.922Z,7.63
2024-05-09T06:48:00.051Z,8.10
2024-05-09T06:50:35.699Z,8.80
2024-05-09T06:53:05.074Z,10.05
2024-05-09T06:55:32.031Z,5.18
2024-05-09T06:57:58.871Z,5.13
2024-05-09T07:00:34.475Z,7.00
2024-05-09T07:03:13.079Z,3.70
2024-05-09T07:05:42.060Z,6.63
2024-05-09T07:08:09.000Z,6.70
2024-05-09T07:10:36.654Z,4.05
2024-05-09T07:13:07.906Z,7.97
2024-05-09T07:15:34.716Z,6.70
2024-05-09T07:18:01.609Z,6.70
2024-05-09T07:20:34.402Z,6.18
2024-05-09T07:23:05.276Z,5.05
2024-05-09T07:25:32.264Z,7.78
2024-05-09T07:27:59.082Z,3.45
2024-05-09T07:30:32.874Z,3.47
2024-05-09T07:33:02.293Z,5.55
2024-05-09T07:35:30.020Z,6.57
2024-05-09T07:37:57.203Z,3.28
2024-05-09T07:40:32.878Z,2.33
2024-05-09T07:43:03.442Z,2.05
2024-05-09T07:45:47.396Z,1.92
2024-05-09T07:53:38.491Z,6.25
2024-05-09T07:56:06.767Z,2.42
2024-05-09T07:58:33.614Z,3.70
2024-05-09T08:01:00.396Z,2.28
2024-05-09T08:03:27.325Z,7.88
2024-05-09T08:05:54.820Z,3.42
2024-05-09T08:08:21.921Z,4.35
2024-05-09T08:10:48.654Z,10.23
2024-05-09T08:13:15.434Z,3.63
2024-05-09T08:15:42.279Z,2.50
2024-05-09T08:18:10.013Z,4.20
2024-05-09T08:20:40.273Z,3.40
2024-05-09T08:23:07.162Z,5.18
2024-05-09T08:25:33.911Z,3.97
2024-05-09T08:28:00.874Z,5.90
2024-05-09T08:30:33.702Z,1.85
2024-05-09T08:33:04.278Z,2.70
2024-05-09T08:35:31.275Z,1.92
2024-05-09T08:37:58.215Z,5.95
2024-05-09T08:40:32.860Z,5.15
2024-05-09T08:43:02.246Z,3.75
2024-05-09T08:45:29.064Z,3.08
2024-05-09T08:47:55.968Z,2.25
2024-05-09T08:50:31.837Z,7.82
2024-05-09T08:53:05.184Z,4.72
2024-05-09T08:55:31.988Z,3.58
2024-05-09T08:57:59.393Z,8.13
2024-05-09T09:00:34.105Z,4.00
2024-05-09T09:03:04.535Z,2.53
2024-05-09T09:05:31.986Z,3.30
2024-05-09T09:07:59.387Z,4.57
2024-05-09T09:10:31.894Z,5.10
2024-05-09T09:13:05.128Z,7.80
2024-05-09T09:15:32.561Z,7.13
2024-05-09T09:18:00.220Z,7.22
2024-05-09T09:20:34.221Z,6.63
2024-05-09T09:23:03.909Z,3.88
2024-05-09T09:25:30.887Z,5.82
2024-05-09T09:28:00.494Z,7.35
2024-05-09T09:30:35.138Z,4.88
2024-05-09T09:33:04.879Z,7.43
2024-05-09T09:35:31.952Z,5.05
2024-05-09T09:37:59.597Z,8.48
2024-05-09T09:40:32.226Z,5.40
2024-05-09T09:43:01.197Z,5.63
2024-05-09T09:45:31.776Z,6.18
2024-05-09T09:47:58.609Z,7.25
2024-05-09T09:50:33.335Z,9.77
2024-05-09T09:53:01.605Z,4.65
2024-05-09T09:55:28.626Z,7.28
2024-05-09T09:57:56.181Z,6.18
2024-05-09T10:00:29.976Z,8.20
2024-05-09T10:02:59.615Z,8.13
2024-05-09T10:05:26.572Z,5.50
2024-05-09T10:07:53.706Z,10.88
2024-05-09T10:10:32.255Z,4.72
2024-05-09T10:13:03.296Z,10.20
2024-05-09T10:15:30.873Z,4.45
2024-05-09T10:18:07.339Z,3.80
2024-05-09T10:20:41.457Z,3.60
2024-05-09T10:23:27.188Z,5.95
2024-05-09T10:26:06.563Z,2.88
2024-05-09T10:28:33.832Z,4.57
2024-05-09T10:31:10.683Z,2.45
2024-05-09T10:33:45.520Z,3.17
2024-05-09T10:36:13.435Z,5.93
2024-05-09T10:38:40.606Z,6.28
2024-05-09T10:41:07.746Z,1.52
2024-05-09T10:43:35.794Z,4.13
2024-05-09T10:46:02.632Z,4.03
2024-05-09T10:48:29.517Z,2.85
2024-05-09T10:50:56.241Z,3.28
2024-05-09T10:53:23.392Z,2.95
2024-05-09T10:55:59.706Z,3.85
2024-05-09T10:58:26.702Z,4.00
2024-05-09T11:00:57.704Z,6.35
2024-05-09T11:03:25.020Z,2.75
2024-05-09T11:05:52.043Z,5.43
2024-05-09T11:08:25.010Z,4.75
2024-05-09T11:10:52.568Z,6.25
2024-05-09T11:13:28.535Z,6.78
2024-05-09T11:15:55.288Z,4.85
2024-05-09T11:18:25.536Z,6.57
2024-05-09T11:20:53.689Z,2.50
2024-05-09T11:23:22.080Z,5.72
2024-05-09T11:25:58.233Z,4.47
2024-05-09T11:28:26.158Z,2.65
2024-05-09T11:30:52.954Z,3.75
2024-05-09T11:33:19.904Z,5.93
2024-05-09T11:35:46.869Z,4.63
2024-05-09T11:38:13.667Z,4.20
2024-05-09T11:40:40.729Z,2.58
2024-05-09T11:43:07.621Z,4.70
2024-05-09T11:45:34.467Z,5.00
2024-05-09T11:48:01.560Z,4.05
2024-05-09T11:50:33.095Z,2.28
2024-05-09T11:53:02.467Z,3.88
2024-05-09T11:55:29.502Z,2.53
2024-05-09T11:57:56.827Z,8.73
2024-05-09T12:00:32.971Z,3.33
2024-05-09T12:03:05.431Z,4.55
2024-05-09T12:05:33.104Z,3.20
2024-05-09T12:08:00.407Z,5.35
2024-05-09T12:10:33.057Z,2.92
2024-05-09T12:13:02.500Z,4.70
2024-05-09T12:15:29.752Z,3.47
2024-05-09T12:17:59.019Z,3.40
2024-05-09T12:20:35.437Z,3.25
2024-05-09T12:23:05.312Z,2.38
2024-05-09T12:25:32.117Z,3.33
2024-05-09T12:27:58.994Z,5.85
2024-05-09T12:30:35.150Z,3.25
2024-05-09T12:33:05.948Z,5.28
2024-05-09T12:35:35.774Z,2.28
2024-05-09T12:38:02.649Z,3.38
2024-05-09T12:40:36.224Z,3.83
2024-05-09T12:43:06.197Z,4.05
2024-05-09T12:45:33.360Z,4.20
2024-05-09T12:48:00.503Z,4.40
2024-05-09T12:50:32.542Z,2.58
2024-05-09T12:53:01.473Z,6.03
2024-05-09T12:55:31.473Z,2.25
2024-05-09T12:58:01.193Z,3.78
2024-05-09T13:00:33.559Z,5.88
2024-05-09T13:03:01.510Z,5.53
2024-05-09T13:05:29.039Z,3.92
2024-05-09T13:07:57.072Z,3.65
2024-05-09T13:10:30.955Z,7.40
2024-05-09T13:13:00.152Z,2.83
2024-05-09T13:15:27.436Z,4.40
2024-05-09T13:17:56.382Z,4.65
2024-05-09T13:20:31.334Z,4.70
2024-05-09T13:23:01.081Z,2.10
2024-05-09T13:25:27.831Z,4.95
2024-05-09T13:27:54.860Z,3.05
2024-05-09T13:30:29.414Z,1.92
2024-05-09T13:33:05.269Z,2.78
2024-05-09T13:35:34.897Z,2.55
2024-05-09T13:38:02.438Z,8.15
2024-05-09T13:40:33.793Z,2.65
2024-05-09T13:43:02.980Z,3.25
2024-05-09T13:45:30.005Z,3.10
2024-05-09T13:47:56.988Z,3.47
2024-05-09T13:50:32.937Z,1.90
2024-05-09T13:53:02.652Z,2.70
2024-05-09T13:55:29.532Z,3.78
2024-05-09T13:57:56.438Z,4.10
2024-05-09T14:00:37.590Z,2.30
2024-05-09T14:03:10.156Z,3.97
2024-05-09T14:05:37.189Z,2.33
2024-05-09T14:08:04.200Z,2.67
2024-05-09T14:10:32.049Z,2.17
2024-05-09T14:12:59.995Z,3.00
2024-05-09T14:15:27.176Z,3.70
2024-05-09T14:17:54.300Z,6.60
2024-05-09T14:20:30.342Z,3.05
2024-05-09T14:22:58.989Z,2.33
2024-05-09T14:25:28.587Z,3.65
2024-05-09T14:27:55.984Z,2.47
2024-05-09T14:30:30.566Z,1.83
2024-05-09T14:33:03.461Z,4.82
2024-05-09T14:35:30.347Z,1.77
2024-05-09T14:37:57.117Z,3.50
2024-05-09T14:42:53.464Z,4.45
2024-05-09T14:45:20.257Z,4.03
2024-05-09T14:47:47.092Z,5.53
2024-05-09T14:50:23.274Z,7.22
2024-05-09T14:52:54.315Z,1.90
2024-05-09T14:55:21.133Z,5.63
2024-05-09T14:57:47.899Z,3.80
2024-05-09T15:00:21.417Z,1.90
2024-05-09T15:02:53.265Z,4.03
2024-05-09T15:05:20.096Z,3.58
2024-05-09T15:07:46.912Z,3.42
2024-05-09T15:10:20.755Z,3.55
2024-05-09T15:12:53.672Z,3.90
2024-05-09T15:15:21.047Z,4.35
2024-05-09T15:17:48.040Z,3.25
2024-05-09T15:20:17.581Z,2.60
2024-05-09T15:22:50.547Z,2.72
2024-05-09T15:25:17.362Z,2.63
2024-05-09T15:27:44.166Z,1.83
2024-05-09T15:30:13.014Z,6.53
2024-05-09T15:32:40.249Z,3.15
2024-05-09T15:35:07.455Z,3.28
2024-05-09T15:37:34.287Z,4.43
2024-05-09T15:40:01.049Z,3.65
2024-05-09T15:42:27.834Z,1.75
2024-05-09T15:44:54.925Z,2.65
2024-05-09T15:47:21.765Z,3.72
2024-05-09T15:49:48.695Z,1.60
2024-05-09T15:52:17.246Z,2.72
2024-05-09T15:54:44.043Z,6.55
2024-05-09T15:57:10.824Z,1.30
2024-05-09T15:59:37.607Z,3.97
2024-05-09T16:02:04.693Z,3.30
2024-05-09T16:04:31.677Z,4.18
2024-05-09T16:06:58.676Z,3.13
2024-05-09T16:09:25.454Z,2.38
2024-05-09T16:11:52.317Z,3.10
2024-05-09T16:14:19.263Z,3.97
2024-05-09T16:16:46.282Z,3.30
2024-05-09T16:19:13.381Z,2.05
2024-05-09T16:21:40.375Z,2.95
2024-05-09T16:24:07.141Z,3.03
2024-05-09T16:26:33.868Z,3.33
2024-05-09T16:29:00.634Z,4.68
2024-05-09T16:31:27.698Z,2.53
2024-05-09T16:33:54.688Z,2.70
2024-05-09T16:36:21.543Z,3.45
2024-05-09T16:38:48.308Z,3.55
2024-05-09T16:41:15.662Z,5.93
2024-05-09T16:43:42.413Z,2.42
2024-05-09T16:46:09.293Z,3.92
2024-05-09T16:48:37.389Z,2.78
2024-05-09T16:51:04.191Z,5.80
2024-05-09T16:53:30.950Z,6.97
2024-05-09T16:55:57.715Z,2.92
2024-05-09T16:58:24.883Z,3.92
2024-05-09T17:00:51.874Z,4.93
2024-05-09T17:03:18.997Z,4.55
2024-05-09T17:05:47.272Z,4.30
2024-05-09T17:08:15.141Z,3.63
2024-05-09T17:10:42.232Z,6.20
2024-05-09T17:13:10.235Z,6.07
2024-05-09T17:15:37.717Z,3.03
2024-05-09T17:18:04.956Z,5.55
2024-05-09T17:20:35.282Z,3.40
2024-05-09T17:23:05.150Z,3.70
2024-05-09T17:25:32.743Z,5.18
2024-05-09T17:28:06.275Z,4.05
2024-05-09T17:30:36.818Z,12.40
2024-05-09T17:33:05.884Z,4.85
2024-05-09T17:35:32.785Z,5.50
2024-05-09T17:37:59.919Z,5.97
2024-05-09T17:40:33.225Z,3.30
2024-05-09T17:43:03.328Z,2.88
2024-05-09T17:45:30.614Z,5.28
2024-05-09T17:47:57.637Z,5.45
2024-05-09T17:50:31.456Z,4.38
2024-05-09T17:53:02.398Z,3.47
2024-05-09T17:55:29.644Z,3.75
2024-05-09T17:57:56.918Z,6.40
2024-05-09T18:00:35.692Z,5.18
2024-05-09T18:03:06.454Z,6.28
2024-05-09T18:05:33.484Z,2.80
2024-05-09T18:08:00.578Z,5.70
2024-05-09T18:10:35.117Z,4.32
2024-05-09T18:13:06.259Z,5.45
2024-05-09T18:15:33.598Z,7.90
2024-05-09T18:18:00.620Z,6.40
2024-05-09T18:20:37.377Z,5.13
2024-05-09T18:23:09.780Z,7.22
2024-05-09T18:25:36.668Z,6.22
2024-05-09T18:28:03.616Z,5.78
2024-05-09T18:30:34.961Z,4.18
2024-05-09T18:33:04.294Z,4.07
2024-05-09T18:35:31.747Z,7.65
2024-05-09T18:37:58.519Z,6.03
2024-05-09T18:40:32.544Z,8.77
2024-05-09T18:43:02.912Z,5.55
2024-05-09T18:45:29.852Z,3.55
2024-05-09T18:47:56.761Z,5.20
2024-05-09T18:50:32.048Z,9.00
2024-05-09T18:53:03.643Z,5.50
2024-05-09T18:55:30.383Z,6.93
2024-05-09T18:57:57.645Z,5.75
2024-05-09T19:00:33.445Z,2.55
2024-05-09T19:03:06.139Z,6.50
2024-05-09T19:05:34.836Z,4.25
2024-05-09T19:08:02.176Z,3.20
2024-05-09T19:10:33.786Z,3.60
2024-05-09T19:13:05.404Z,3.83
2024-05-09T19:15:35.817Z,4.35
2024-05-09T19:18:02.748Z,7.63
2024-05-09T19:20:34.258Z,7.72
2024-05-09T19:23:02.748Z,5.45
2024-05-09T19:25:29.733Z,4.63
2024-05-09T19:27:56.585Z,5.53
2024-05-09T19:30:30.500Z,7.20
2024-05-09T19:33:05.317Z,6.55
2024-05-09T19:35:32.679Z,5.13
2024-05-09T19:37:59.712Z,8.50
2024-05-09T19:40:31.411Z,6.72
2024-05-09T19:43:00.616Z,4.68
2024-05-09T19:45:27.419Z,5.25
2024-05-09T19:47:54.570Z,8.43
2024-05-09T19:50:30.198Z,8.95
2024-05-09T19:53:03.287Z,8.10
2024-05-09T19:55:30.096Z,6.65
2024-05-09T19:57:57.169Z,6.35
2024-05-09T20:00:32.493Z,4.20
2024-05-09T20:03:02.870Z,10.43
2024-05-09T20:05:33.352Z,6.22
2024-05-09T20:08:00.378Z,4.57
2024-05-09T20:10:32.121Z,9.00
2024-05-09T20:13:01.441Z,7.38
2024-05-09T20:15:28.291Z,7.32
2024-05-09T20:17:55.367Z,3.10
2024-05-09T20:20:32.991Z,3.40
2024-05-09T20:23:05.551Z,2.95
2024-05-09T20:25:32.312Z,3.65
2024-05-09T20:27:59.115Z,3.30
2024-05-09T20:30:31.781Z,3.35
2024-05-09T20:33:00.653Z,7.18
2024-05-09T20:35:30.652Z,5.95
2024-05-09T20:37:57.487Z,3.60
2024-05-09T20:40:29.256Z,4.22
2024-05-09T20:43:00.622Z,6.10
2024-05-09T20:45:27.460Z,3.67
2024-05-09T20:47:54.468Z,3.33
2024-05-09T20:50:29.041Z,3.97
2024-05-09T20:53:03.666Z,3.35
2024-05-09T20:55:30.543Z,4.95
2024-05-09T20:57:57.741Z,4.40
2024-05-09T21:00:34.343Z,6.78
2024-05-09T21:03:07.115Z,4.50
2024-05-09T21:05:34.776Z,7.20
2024-05-09T21:08:02.117Z,7.72
2024-05-09T21:10:32.814Z,5.88
2024-05-09T21:13:01.410Z,9.38
2024-05-09T21:15:28.492Z,5.40
2024-05-09T21:17:55.419Z,6.47
2024-05-09T21:20:28.834Z,4.78
2024-05-09T21:22:58.455Z,5.40
2024-05-09T21:25:25.401Z,7.63
2024-05-09T21:27:52.620Z,4.25
2024-05-09T21:30:31.304Z,6.65
2024-05-09T21:33:06.004Z,8.27
2024-05-09T21:35:32.989Z,8.57
2024-05-09T21:37:59.741Z,5.85
2024-05-09T21:40:33.487Z,6.88
2024-05-09T21:43:02.498Z,7.28
2024-05-09T21:45:29.697Z,7.82
2024-05-09T21:47:56.584Z,6.38
2024-05-09T21:50:31.601Z,11.93
2024-05-09T21:53:05.561Z,5.55
2024-05-09T21:55:32.375Z,10.20
2024-05-09T21:57:59.147Z,12.70
2024-05-09T22:00:34.247Z,8.60
2024-05-09T22:03:04.362Z,8.43
2024-05-09T22:05:31.422Z,9.30
2024-05-09T22:07:58.359Z,16.30
2024-05-09T22:10:30.900Z,9.63
2024-05-09T22:13:01.488Z,5.88
2024-05-09T22:15:28.457Z,7.45
2024-05-09T22:17:56.346Z,5.70
2024-05-09T22:20:32.845Z,13.10
2024-05-09T22:23:03.360Z,11.85
2024-05-09T22:25:31.201Z,7.00
2024-05-09T22:27:58.886Z,10.48
2024-05-09T22:30:34.180Z,10.30
2024-05-09T22:33:05.549Z,10.90
2024-05-09T22:35:32.598Z,11.20
2024-05-09T22:37:59.419Z,10.45
2024-05-09T22:40:38.078Z,11.32
2024-05-09T22:43:13.098Z,9.77
2024-05-09T22:45:40.083Z,13.02
2024-05-09T22:48:08.105Z,13.55
2024-05-09T22:50:35.094Z,10.23
2024-05-09T22:53:02.091Z,10.60
2024-05-09T22:55:29.083Z,9.90
2024-05-09T22:57:56.074Z,8.38
2024-05-09T23:00:30.953Z,9.57
2024-05-09T23:03:02.532Z,13.10
2024-05-09T23:05:29.775Z,7.97
2024-05-09T23:07:56.816Z,7.35
2024-05-09T23:10:31.466Z,11.30
2024-05-09T23:13:02.863Z,10.48
2024-05-09T23:15:29.919Z,8.82
2024-05-09T23:17:57.970Z,11.73
2024-05-09T23:20:33.728Z,7.82
2024-05-09T23:23:05.324Z,11.32
2024-05-09T23:25:32.170Z,13.18
2024-05-09T23:27:58.954Z,13.35
2024-05-09T23:30:33.974Z,11.45
2024-05-09T23:33:05.454Z,12.68
2024-05-09T23:35:32.355Z,13.13
2024-05-09T23:37:59.117Z,10.90
2024-05-09T23:40:36.903Z,10.52
2024-05-09T23:43:06.955Z,10.13
2024-05-09T23:45:34.071Z,10.15
2024-05-09T23:48:01.287Z,13.05
2024-05-09T23:50:34.522Z,9.70
2024-05-09T23:53:04.485Z,10.18
2024-05-09T23:55:32.184Z,10.00
2024-05-09T23:57:59.354Z,11.48
